Time;durP1;ratioP1;P1;durP2;ratioP2;P2;SDS_P1;SDS_P2;PMS_P1;PMS_P2;Temp;Humidity;BMP_temperature;BMP_pressure;BME280_temperature;BME280_humidity;BME280_pressure;Samples;Min_cycle;Max_cycle;Signal;HPM_P1;HPM_P2
2022/03/31 00:00:45;;;;;;;1.77;1.50;;;24.10;49.30;;;;;;5043152;28;20533;-43
2022/03/31 00:03:15;;;;;;;2.78;1.80;;;24.10;49.30;;;;;;5045399;28;20039;-44
2022/03/31 00:05:42;;;;;;;1.80;1.63;;;24.10;49.30;;;;;;5057673;28;20024;-43
2022/03/31 00:08:15;;;;;;;2.10;1.60;;;24.10;49.30;;;;;;5062055;28;20036;-42
2022/03/31 00:10:45;;;;;;;3.55;1.60;;;24.10;49.30;;;;;;5054188;28;20124;-42
2022/03/31 00:13:16;;;;;;;2.15;1.70;;;24.10;49.40;;;;;;5063077;28;20036;-44
2022/03/31 00:15:42;;;;;;;2.00;1.80;;;24.10;49.50;;;;;;5062599;28;20049;-42
2022/03/31 00:18:09;;;;;;;2.45;1.75;;;24.10;49.70;;;;;;5062698;28;20033;-43
2022/03/31 00:20:35;;;;;;;;;;;24.10;50.00;;;;;;5051680;28;20030;-43
2022/03/31 00:23:07;;;;;;;2.92;1.65;;;24.10;50.00;;;;;;5042540;28;19935;-43
2022/03/31 00:25:33;;;;;;;2.67;1.90;;;24.10;50.10;;;;;;5054783;28;20037;-43
2022/03/31 00:28:01;;;;;;;2.05;1.70;;;24.10;50.80;;;;;;5062358;28;20050;-43
2022/03/31 00:30:26;;;;;;;;;;;24.10;50.40;;;;;;5063402;28;20021;-42
2022/03/31 00:32:53;;;;;;;1.77;1.42;;;24.10;50.40;;;;;;5062347;28;20090;-42
2022/03/31 00:35:19;;;;;;;2.58;1.55;;;24.10;50.60;;;;;;5044307;28;20045;-44
2022/03/31 00:37:45;;;;;;;1.75;1.58;;;24.10;50.70;;;;;;5055110;28;20731;-43
2022/03/31 00:40:15;;;;;;;2.20;1.50;;;24.10;50.80;;;;;;5061540;28;20029;-43
2022/03/31 00:42:47;;;;;;;2.75;1.65;;;24.10;50.80;;;;;;5061614;28;20028;-41
2022/03/31 00:45:18;;;;;;;2.15;1.80;;;24.10;51.00;;;;;;5060102;28;20040;-41
2022/03/31 00:47:44;;;;;;;2.83;1.73;;;24.10;51.10;;;;;;5060565;28;20040;-41
2022/03/31 00:50:11;;;;;;;2.63;1.80;;;24.10;51.20;;;;;;5056793;28;20032;-42
2022/03/31 00:52:38;;;;;;;2.33;1.85;;;24.10;51.60;;;;;;5056715;28;20017;-41
2022/03/31 00:55:05;;;;;;;4.30;1.73;;;;;;;;;;5055493;28;20489;-42
2022/03/31 00:57:32;;;;;;;5.07;1.83;;;;;;;;;;5056502;28;20063;-43
2022/03/31 01:00:00;;;;;;;4.10;2.00;;;;;;;;;;5063076;28;20086;-43
2022/03/31 01:02:30;;;;;;;4.55;1.83;;;24.00;82.70;;;;;;5063033;28;20036;-43
2022/03/31 01:04:59;;;;;;;2.42;1.63;;;24.10;83.80;;;;;;5057085;28;20090;-42
2022/03/31 01:07:26;;;;;;;3.33;1.92;;;24.10;84.60;;;;;;5057003;28;20049;-47
2022/03/31 01:09:59;;;;;;;3.90;2.00;;;24.10;85.10;;;;;;5055680;28;20067;-43
2022/03/31 01:12:28;;;;;;;3.80;1.98;;;;;;;;;;5053535;28;20037;-48
2022/03/31 01:15:07;;;;;;;3.40;1.95;;;;;;;;;;5058325;28;20057;-52
2022/03/31 01:17:34;;;;;;;3.33;2.13;;;24.00;79.10;;;;;;5056786;28;20039;-49
2022/03/31 01:20:00;;;;;;;4.28;1.98;;;24.10;67.10;;;;;;5053126;28;20027;-50
2022/03/31 01:22:29;;;;;;;5.23;2.23;;;24.00;66.20;;;;;;5057826;28;20021;-47
2022/03/31 01:24:55;;;;;;;2.28;1.92;;;24.00;64.90;;;;;;5055723;28;20029;-47
2022/03/31 01:27:22;;;;;;;5.15;2.17;;;24.10;64.00;;;;;;5052094;28;20025;-49
2022/03/31 01:29:48;;;;;;;3.78;2.25;;;24.00;63.90;;;;;;5056795;28;20087;-52
2022/03/31 01:32:14;;;;;;;6.55;2.47;;;24.00;62.80;;;;;;5055994;28;20109;-49
2022/03/31 01:34:40;;;;;;;3.25;2.13;;;24.00;62.50;;;;;;5058848;28;20034;-49
2022/03/31 01:37:07;;;;;;;2.80;2.08;;;24.00;62.30;;;;;;5060509;28;20025;-49
2022/03/31 01:39:34;;;;;;;5.45;2.35;;;24.00;62.10;;;;;;5053700;28;20047;-49
2022/03/31 01:42:01;;;;;;;4.97;2.58;;;24.00;62.00;;;;;;5053377;28;20029;-47
2022/03/31 01:44:28;;;;;;;2.73;2.23;;;24.00;61.90;;;;;;5054054;28;21363;-51
2022/03/31 01:46:55;;;;;;;2.45;2.10;;;24.00;62.10;;;;;;5058743;28;20120;-49
2022/03/31 01:49:21;;;;;;;6.20;2.53;;;24.00;61.80;;;;;;5062308;28;20128;-49
2022/03/31 01:51:47;;;;;;;3.90;2.45;;;24.00;62.50;;;;;;5058691;28;20032;-49
2022/03/31 01:54:13;;;;;;;4.43;2.70;;;24.00;61.70;;;;;;5060146;28;20044;-49
2022/03/31 01:56:43;;;;;;;5.35;2.67;;;24.00;61.50;;;;;;5056403;28;20128;-50
2022/03/31 01:59:10;;;;;;;3.45;2.38;;;24.00;61.70;;;;;;5060421;28;20033;-48
2022/03/31 02:01:36;;;;;;;2.88;2.50;;;24.00;61.70;;;;;;5066000;28;20028;-49
2022/03/31 02:04:02;;;;;;;7.55;3.28;;;24.00;61.70;;;;;;5061480;28;20600;-48
2022/03/31 02:06:29;;;;;;;4.72;2.35;;;24.00;61.80;;;;;;5066699;28;20475;-49
2022/03/31 02:08:56;;;;;;;3.92;2.78;;;23.90;61.50;;;;;;5062003;28;20062;-50
2022/03/31 02:11:22;;;;;;;4.00;2.60;;;23.90;61.50;;;;;;5063230;28;20033;-50
2022/03/31 02:13:48;;;;;;;5.87;3.07;;;23.90;61.60;;;;;;5064078;28;20648;-50
2022/03/31 02:16:14;;;;;;;4.18;2.30;;;23.90;61.70;;;;;;5061990;28;20037;-48
2022/03/31 02:18:41;;;;;;;3.63;2.78;;;23.90;61.80;;;;;;5058437;28;20045;-47
2022/03/31 02:21:07;;;;;;;4.13;2.60;;;23.90;61.80;;;;;;5059497;28;20049;-48
2022/03/31 02:23:33;;;;;;;4.60;2.75;;;23.90;62.00;;;;;;5060279;28;20040;-49
2022/03/31 02:25:59;;;;;;;5.55;2.97;;;23.90;62.10;;;;;;5058342;28;20045;-47
2022/03/31 02:28:25;;;;;;;4.05;2.78;;;23.90;62.00;;;;;;5063558;28;20108;-47
2022/03/31 02:30:51;;;;;;;3.78;3.05;;;23.90;62.90;;;;;;5064428;28;20088;-48
2022/03/31 02:33:18;;;;;;;4.00;2.72;;;23.90;62.10;;;;;;5060995;28;20045;-48
2022/03/31 02:35:44;;;;;;;4.70;2.70;;;23.90;62.10;;;;;;5059354;28;20522;-48
2022/03/31 02:38:10;;;;;;;3.53;3.00;;;23.90;62.20;;;;;;5069427;28;20047;-49
2022/03/31 02:40:36;;;;;;;4.00;2.65;;;23.90;62.30;;;;;;5060129;28;20028;-48
2022/03/31 02:43:03;;;;;;;4.45;2.60;;;23.90;62.30;;;;;;5064772;28;20039;-48
2022/03/31 02:45:29;;;;;;;4.75;2.72;;;23.90;62.40;;;;;;5067419;28;20033;-48
2022/03/31 02:47:55;;;;;;;4.80;3.10;;;23.80;62.50;;;;;;5064805;28;20028;-47
2022/03/31 02:50:21;;;;;;;4.43;2.83;;;23.80;62.70;;;;;;5066478;28;20045;-48
2022/03/31 02:55:32;;;;;;;4.70;3.10;;;23.80;62.80;;;;;;5062559;28;20063;-47
2022/03/31 02:58:02;;;;;;;4.50;2.72;;;23.80;62.90;;;;;;5062723;28;20479;-49
2022/03/31 03:00:33;;;;;;;4.10;2.78;;;23.80;63.00;;;;;;5058346;28;20055;-48
2022/03/31 03:03:01;;;;;;;6.18;2.50;;;23.80;63.10;;;;;;5058158;28;20026;-49
2022/03/31 03:05:27;;;;;;;5.72;2.80;;;23.80;63.20;;;;;;5079447;28;20051;-48
2022/03/31 03:07:54;;;;;;;3.28;2.35;;;23.80;63.30;;;;;;5070071;28;20029;-48
2022/03/31 03:10:20;;;;;;;4.40;2.75;;;23.80;63.40;;;;;;5067014;28;20120;-48
2022/03/31 03:12:47;;;;;;;5.82;2.78;;;23.80;64.40;;;;;;5063586;28;20032;-50
2022/03/31 03:15:13;;;;;;;3.47;2.33;;;23.80;63.60;;;;;;5056183;28;20052;-48
2022/03/31 03:17:43;;;;;;;4.15;2.53;;;23.80;63.80;;;;;;5063883;28;20029;-50
2022/03/31 03:20:13;;;;;;;5.00;2.70;;;23.80;63.90;;;;;;5065653;28;20024;-49
2022/03/31 03:22:47;;;;;;;6.90;2.90;;;23.80;63.90;;;;;;5062520;28;20036;-48
2022/03/31 03:25:15;;;;;;;4.60;2.42;;;23.80;64.20;;;;;;5062895;28;20122;-48
2022/03/31 03:27:42;;;;;;;4.57;2.50;;;23.80;64.20;;;;;;5064911;28;20178;-48
2022/03/31 03:30:09;;;;;;;4.47;2.50;;;23.80;64.30;;;;;;5065212;28;20028;-50
2022/03/31 03:32:38;;;;;;;4.25;2.70;;;23.80;64.50;;;;;;5065719;28;20088;-50
2022/03/31 03:35:09;;;;;;;4.47;2.47;;;23.80;64.60;;;;;;5083610;28;20033;-47
2022/03/31 03:37:36;;;;;;;4.25;2.50;;;23.70;64.70;;;;;;5068651;28;20056;-47
2022/03/31 03:40:03;;;;;;;3.80;2.38;;;23.80;64.80;;;;;;5056142;28;20025;-49
2022/03/31 03:42:30;;;;;;;4.25;2.70;;;23.70;64.80;;;;;;5048859;28;20401;-47
2022/03/31 03:44:56;;;;;;;5.47;3.05;;;23.70;64.90;;;;;;5049736;28;20945;-46
2022/03/31 03:47:22;;;;;;;4.32;2.65;;;23.70;65.10;;;;;;5051306;28;20048;-49
2022/03/31 03:49:49;;;;;;;3.30;2.38;;;;;;;;;;5052407;28;20034;-45
2022/03/31 03:52:16;;;;;;;4.55;2.95;;;23.70;47.50;;;;;;5049746;28;20028;-50
2022/03/31 03:54:42;;;;;;;2.83;2.33;;;23.70;48.10;;;;;;5051766;28;20100;-52
2022/03/31 03:57:08;;;;;;;5.40;2.22;;;23.70;48.20;;;;;;5048953;28;20038;-44
